Terminal Aerodrome Forecast
Issued by NWS

Home | Current Version | Previous Version | Text Only | Print | Product List | Glossary On
Versions: 1 2 3 4 5 6 7 8 9 10 11 12 13
000
FTUS43 KPAH 082320
TAFOWB
TAF
KOWB 082320Z 0900/0924 VRB03KT P6SM SCT250
     FM090600 22004KT P6SM SCT050 BKN100
     FM091200 24006KT P6SM SCT025 BKN050
     FM091500 26012G20KT P6SM OVC025
      TEMPO 0915/0916 -SN
     FM091900 31015G25KT P6SM BKN030=

USA.gov is the U.S. government's official web portal to all federal, state and local government web resources and services.